Time;durP1;ratioP1;P1;durP2;ratioP2;P2;SDS_P1;SDS_P2;PMS_P1;PMS_P2;Temp;Humidity;BMP_temperature;BMP_pressure;BME280_temperature;BME280_humidity;BME280_pressure;Samples;Min_cycle;Max_cycle;Signal;HPM_P1;HPM_P2
2021/03/28 00:03:35;;;;;;;1.20;0.95;;;3.30;1.00;;;;;;4979475;28;20179;-76
2021/03/28 00:06:34;;;;;;;1.75;1.05;;;3.40;1.00;;;;;;4994341;28;20182;-74
2021/03/28 00:09:43;;;;;;;1.00;1.00;;;3.40;1.00;;;;;;4976370;28;20186;-74
2021/03/28 00:12:32;;;;;;;5.95;1.30;;;3.50;1.00;;;;;;4976903;28;20171;-74
2021/03/28 00:15:14;;;;;;;7.70;1.40;;;3.50;1.00;;;;;;4979343;28;20237;-74
2021/03/28 00:17:50;;;;;;;2.58;1.65;;;3.60;1.00;;;;;;4987201;28;20177;-74
2021/03/28 00:20:20;;;;;;;2.15;1.05;;;3.60;1.00;;;;;;4995567;28;20217;-74
2021/03/28 00:23:13;;;;;;;1.52;1.40;;;3.70;1.00;;;;;;4986016;28;20194;-74
2021/03/28 00:25:39;;;;;;;1.23;0.80;;;3.70;1.00;;;;;;4986010;28;20184;-74
2021/03/28 00:28:22;;;;;;;2.83;1.30;;;3.70;1.00;;;;;;5045052;28;20278;-74
2021/03/28 00:30:49;;;;;;;3.35;1.45;;;3.80;1.00;;;;;;5076308;28;20156;-74
2021/03/28 00:33:25;;;;;;;1.05;1.00;;;3.90;1.00;;;;;;5076613;28;20159;-73
2021/03/28 00:39:52;;;;;;;1.75;1.20;;;4.00;1.00;;;;;;5056249;28;20213;-76
2021/03/28 00:42:40;;;;;;;5.88;1.17;;;3.90;1.00;;;;;;5066172;28;20186;-76
2021/03/28 00:45:45;;;;;;;8.98;1.70;;;4.00;1.00;;;;;;5074379;28;20211;-76
2021/03/28 00:48:55;;;;;;;5.60;1.83;;;4.10;1.00;;;;;;5072069;28;20175;-75
2021/03/28 00:51:28;;;;;;;3.15;1.40;;;4.10;1.00;;;;;;5072243;28;20682;-74
2021/03/28 00:54:43;;;;;;;2.38;1.10;;;4.20;1.00;;;;;;5075500;28;20206;-74
2021/03/28 00:57:32;;;;;;;13.38;1.30;;;4.30;1.00;;;;;;5031789;28;20203;-74
2021/03/28 01:00:36;;;;;;;4.35;1.40;;;4.30;1.00;;;;;;5025395;28;20184;-74
2021/03/28 01:03:37;;;;;;;1.95;1.33;;;4.30;1.00;;;;;;4994257;28;20201;-74
2021/03/28 01:06:34;;;;;;;4.90;1.45;;;4.40;1.00;;;;;;4990639;28;20285;-74
2021/03/28 01:09:08;;;;;;;2.83;1.90;;;;;;;;;;4994071;28;20707;-74
2021/03/28 01:11:59;;;;;;;11.75;1.52;;;4.40;1.00;;;;;;4981306;28;20206;-74
2021/03/28 01:14:44;;;;;;;16.60;2.17;;;;;;;;;;4974700;28;20254;-74
2021/03/28 01:17:27;;;;;;;13.00;2.53;;;4.50;1.00;;;;;;4982640;28;20274;-74
2021/03/28 01:20:12;;;;;;;5.05;1.98;;;4.60;1.00;;;;;;4993950;28;20190;-74
2021/03/28 01:23:23;;;;;;;4.05;1.85;;;4.60;1.00;;;;;;4977830;28;20166;-76
2021/03/28 01:26:14;;;;;;;4.82;2.00;;;4.70;1.00;;;;;;4916973;29;20651;-76
2021/03/28 01:35:44;;;;;;;6.32;1.90;;;4.80;1.00;;;;;;4898303;29;20276;-75
2021/03/28 01:38:21;;;;;;;2.85;2.05;;;4.80;1.00;;;;;;4913842;29;20195;-74
2021/03/28 01:41:20;;;;;;;5.07;1.42;;;4.80;1.00;;;;;;4945526;29;20237;-74
2021/03/28 01:44:18;;;;;;;3.83;1.75;;;4.80;1.00;;;;;;4898094;29;20201;-74
2021/03/28 01:47:18;;;;;;;2.70;1.50;;;4.90;1.00;;;;;;4898170;29;20256;-74
2021/03/28 01:49:55;;;;;;;3.50;1.93;;;4.90;1.00;;;;;;4906096;29;20744;-74
2021/03/28 01:56:12;;;;;;;2.40;1.75;;;4.80;1.00;;;;;;4917822;28;20281;-76
2021/03/28 01:59:06;;;;;;;7.35;1.80;;;4.90;1.00;;;;;;4954910;28;20235;-76
2021/03/28 02:02:26;;;;;;;6.05;1.48;;;4.90;1.00;;;;;;4956605;28;20207;-76
2021/03/28 02:12:07;;;;;;;2.85;1.70;;;5.00;1.00;;;;;;4973813;28;20201;-76
2021/03/28 02:21:28;;;;;;;3.75;1.58;;;5.00;1.00;;;;;;4974203;28;20189;-76
2021/03/28 02:24:38;;;;;;;3.45;1.65;;;5.00;1.00;;;;;;4992805;28;20185;-76
2021/03/28 02:31:13;;;;;;;8.32;1.35;;;5.10;1.00;;;;;;5007617;28;20551;-76
2021/03/28 02:34:19;;;;;;;2.78;1.73;;;5.10;1.00;;;;;;5012548;28;20207;-77
2021/03/28 02:37:14;;;;;;;1.38;1.27;;;5.20;1.00;;;;;;5012971;28;20196;-76
2021/03/28 02:43:08;;;;;;;2.80;1.50;;;5.10;1.00;;;;;;4992747;28;20157;-76
2021/03/28 02:56:03;;;;;;;5.50;2.40;;;5.20;1.00;;;;;;5073134;28;20581;-76
2021/03/28 02:58:56;;;;;;;5.95;2.25;;;5.20;1.00;;;;;;5069596;28;20652;-76
2021/03/28 03:04:52;;;;;;;4.27;2.20;;;5.30;1.00;;;;;;5068687;28;20289;-76
2021/03/28 03:07:32;;;;;;;3.70;1.52;;;5.30;1.00;;;;;;5073524;28;20409;-74
2021/03/28 03:10:05;;;;;;;2.42;1.50;;;5.30;1.00;;;;;;5086672;28;20261;-74
2021/03/28 03:12:39;;;;;;;4.15;1.85;;;5.40;1.00;;;;;;5092997;28;20164;-74
2021/03/28 03:15:30;;;;;;;2.92;1.90;;;5.40;1.00;;;;;;5093650;28;20224;-74
2021/03/28 03:18:14;;;;;;;3.03;1.80;;;5.40;1.00;;;;;;5081565;28;20193;-74
2021/03/28 03:21:18;;;;;;;5.67;2.43;;;5.30;1.00;;;;;;5078283;28;20404;-74
2021/03/28 03:24:21;;;;;;;3.47;2.07;;;5.40;1.00;;;;;;5076035;28;20736;-74
2021/03/28 03:27:05;;;;;;;2.65;1.60;;;5.40;1.00;;;;;;5054574;28;20500;-74
2021/03/28 03:29:40;;;;;;;4.83;2.73;;;;;;;;;;5051880;28;20635;-73
2021/03/28 03:32:40;;;;;;;3.13;2.03;;;5.40;1.00;;;;;;5072220;28;20420;-74
2021/03/28 03:35:31;;;;;;;10.63;2.40;;;5.40;1.00;;;;;;5013890;28;20562;-74
2021/03/28 03:38:26;;;;;;;5.88;2.30;;;5.40;1.00;;;;;;4995419;28;20188;-74
2021/03/28 03:41:27;;;;;;;5.70;2.15;;;5.30;1.00;;;;;;5011861;28;20174;-74
2021/03/28 03:44:09;;;;;;;7.68;1.98;;;5.20;1.00;;;;;;5011624;28;20169;-74
2021/03/28 03:46:42;;;;;;;3.47;2.20;;;5.20;1.00;;;;;;5011565;28;20162;-74
2021/03/28 03:49:29;;;;;;;2.80;1.70;;;5.20;1.00;;;;;;5010798;28;20231;-74
2021/03/28 03:52:34;;;;;;;11.15;2.03;;;5.20;1.00;;;;;;5014227;28;20625;-74
2021/03/28 03:55:20;;;;;;;3.38;2.10;;;5.30;1.00;;;;;;4992156;28;20217;-74
2021/03/28 03:58:06;;;;;;;5.20;2.15;;;5.30;1.00;;;;;;4999794;28;20220;-74
2021/03/28 04:01:00;;;;;;;10.93;1.57;;;5.40;1.00;;;;;;4996734;28;20535;-74
2021/03/28 04:03:30;;;;;;;4.65;2.65;;;5.40;1.00;;;;;;4991957;28;20428;-74
2021/03/28 04:06:32;;;;;;;4.18;2.10;;;5.40;1.00;;;;;;4991827;28;20515;-74
2021/03/28 04:09:19;;;;;;;8.73;2.60;;;5.40;1.00;;;;;;4995290;28;20256;-74
2021/03/28 04:11:57;;;;;;;6.55;2.92;;;5.40;1.00;;;;;;5050049;28;20885;-74
2021/03/28 04:14:34;;;;;;;6.82;2.17;;;5.40;1.00;;;;;;5056729;28;20681;-74
2021/03/28 04:17:09;;;;;;;2.28;2.08;;;5.40;1.00;;;;;;5073037;28;20156;-74
2021/03/28 04:19:47;;;;;;;5.40;2.07;;;5.40;1.00;;;;;;5072973;28;20143;-74
2021/03/28 04:22:44;;;;;;;7.20;2.03;;;5.40;1.00;;;;;;5071371;28;20433;-73
2021/03/28 04:25:32;;;;;;;8.70;2.10;;;5.40;1.00;;;;;;5076272;28;20163;-74
2021/03/28 04:28:12;;;;;;;2.00;1.80;;;5.50;1.00;;;;;;5071807;28;20418;-74
2021/03/28 04:30:38;;;;;;;5.67;2.13;;;;;;;;;;5074422;28;20467;-74
2021/03/28 04:33:22;;;;;;;4.40;2.10;;;5.40;1.00;;;;;;5056642;28;20464;-74
2021/03/28 04:36:14;;;;;;;4.40;2.30;;;5.40;1.00;;;;;;5058808;28;20269;-74
2021/03/28 04:39:12;;;;;;;10.43;2.50;;;5.40;1.00;;;;;;5056621;28;20184;-74
2021/03/28 04:41:56;;;;;;;2.47;2.10;;;5.40;1.00;;;;;;5059934;28;20622;-74
2021/03/28 04:45:01;;;;;;;5.47;2.05;;;5.50;1.00;;;;;;5076406;28;20488;-74
2021/03/28 04:47:45;;;;;;;3.70;2.90;;;5.40;1.00;;;;;;5073931;28;20171;-74
2021/03/28 04:50:56;;;;;;;4.30;2.40;;;5.40;1.00;;;;;;5076172;28;20174;-74
2021/03/28 04:54:07;;;;;;;4.95;2.20;;;5.30;1.00;;;;;;5073735;28;20178;-74
2021/03/28 04:56:58;;;;;;;5.25;2.15;;;5.30;1.00;;;;;;5075191;28;20193;-74
2021/03/28 04:59:24;;;;;;;3.92;2.00;;;;;;;;;;5067099;28;20210;-74
2021/03/28 05:02:18;;;;;;;4.20;2.50;;;5.20;1.00;;;;;;5076004;28;20155;-74
2021/03/28 05:05:05;;;;;;;2.30;2.10;;;5.20;1.00;;;;;;5073568;28;20527;-74
2021/03/28 05:08:14;;;;;;;5.65;2.10;;;5.10;1.00;;;;;;5063576;28;20225;-75
2021/03/28 05:11:04;;;;;;;4.85;2.13;;;5.10;1.00;;;;;;5075635;28;20231;-76
2021/03/28 05:20:40;;;;;;;2.50;1.75;;;4.90;1.00;;;;;;5055647;28;20654;-75
2021/03/28 05:26:33;;;;;;;6.35;2.75;;;4.90;1.00;;;;;;5070130;28;20710;-77
2021/03/28 05:29:14;;;;;;;4.70;3.00;;;4.80;1.00;;;;;;5055685;28;20237;-78
2021/03/28 05:31:42;;;;;;;10.82;2.35;;;4.80;1.00;;;;;;5055514;28;20178;-74
2021/03/28 05:34:32;;;;;;;4.85;2.10;;;4.90;1.00;;;;;;5055074;28;20271;-77
2021/03/28 05:54:21;;;;;;;7.85;2.58;;;5.00;1.00;;;;;;5072286;28;20206;-78
2021/03/28 05:57:24;;;;;;;10.32;2.33;;;4.90;1.00;;;;;;5074687;28;20226;-78
2021/03/28 06:03:58;;;;;;;3.13;2.47;;;5.10;1.00;;;;;;5062058;28;20229;-77
2021/03/28 06:06:49;;;;;;;6.70;2.35;;;5.30;1.00;;;;;;5054879;28;20168;-75
2021/03/28 06:09:47;;;;;;;8.50;3.45;;;5.40;1.00;;;;;;5055075;28;20160;-75
2021/03/28 06:13:02;;;;;;;3.65;2.42;;;5.50;1.00;;;;;;5054428;28;20662;-75
2021/03/28 06:22:48;;;;;;;7.00;2.90;;;5.80;1.00;;;;;;5073847;28;20405;-76
2021/03/28 06:25:56;;;;;;;5.90;2.77;;;6.00;1.00;;;;;;5066714;28;20409;-77
2021/03/28 06:31:58;;;;;;;7.30;2.53;;;6.10;1.00;;;;;;5053777;28;20784;-76
2021/03/28 06:38:17;;;;;;;3.00;2.47;;;6.10;1.00;;;;;;5053861;28;20639;-77
2021/03/28 06:41:07;;;;;;;9.03;2.10;;;6.20;1.00;;;;;;5054551;28;20410;-74
2021/03/28 06:44:13;;;;;;;4.93;2.60;;;6.20;1.00;;;;;;5054205;28;20393;-74
2021/03/28 06:46:58;;;;;;;5.03;2.50;;;6.30;1.00;;;;;;5053076;28;20429;-74
2021/03/28 06:50:12;;;;;;;7.60;3.10;;;6.40;1.00;;;;;;5063891;28;20811;-74
2021/03/28 06:56:31;;;;;;;8.67;3.53;;;6.60;1.00;;;;;;5011893;28;20431;-76
2021/03/28 06:59:33;;;;;;;6.90;3.30;;;6.60;1.00;;;;;;5011258;28;20460;-77
2021/03/28 07:09:22;;;;;;;11.53;4.00;;;6.80;1.00;;;;;;4995337;28;20397;-76
2021/03/28 07:12:02;;;;;;;6.53;3.40;;;7.00;1.00;;;;;;5011743;28;20462;-76
2021/03/28 07:14:46;;;;;;;10.80;3.27;;;7.00;1.00;;;;;;5011821;28;20443;-76
2021/03/28 07:17:38;;;;;;;8.70;3.70;;;7.00;1.00;;;;;;5011817;28;20455;-76
2021/03/28 07:20:28;;;;;;;5.67;3.57;;;7.30;1.00;;;;;;5011753;28;20404;-76
2021/03/28 07:26:27;;;;;;;6.60;3.37;;;7.60;1.00;;;;;;5029292;28;20421;-74
2021/03/28 07:29:40;;;;;;;12.23;3.50;;;7.60;1.00;;;;;;5073500;28;20389;-74
2021/03/28 07:32:28;;;;;;;10.33;3.47;;;7.80;1.00;;;;;;5006692;28;20500;-74
2021/03/28 07:35:12;;;;;;;9.13;4.40;;;7.80;1.00;;;;;;4980833;28;21007;-74
2021/03/28 07:38:20;;;;;;;9.60;4.20;;;8.00;1.00;;;;;;4980345;28;20504;-73
2021/03/28 07:41:20;;;;;;;19.13;5.10;;;8.10;1.00;;;;;;4915346;29;20900;-73
2021/03/28 07:44:07;;;;;;;13.90;6.70;;;8.20;1.00;;;;;;4881561;29;20434;-73
2021/03/28 07:47:14;;;;;;;13.37;6.83;;;8.30;1.00;;;;;;4877437;29;20865;-74
2021/03/28 07:50:19;;;;;;;11.70;4.97;;;8.40;1.00;;;;;;4877383;29;20414;-74
2021/03/28 07:52:54;;;;;;;14.27;5.60;;;;;;;;;;4885229;29;20444;-74
2021/03/28 07:55:24;;;;;;;21.73;5.80;;;8.50;1.00;;;;;;4877753;29;20465;-76
2021/03/28 07:58:14;;;;;;;9.57;5.73;;;8.70;1.00;;;;;;4878306;29;20454;-76
2021/03/28 08:01:20;;;;;;;10.13;5.23;;;8.90;1.00;;;;;;4880808;29;20785;-76
2021/03/28 08:07:56;;;;;;;8.73;3.53;;;9.10;1.00;;;;;;4880804;29;20485;-76
2021/03/28 08:10:37;;;;;;;7.63;3.80;;;9.30;1.00;;;;;;4937953;29;20431;-74
2021/03/28 08:13:42;;;;;;;13.50;3.67;;;9.50;1.00;;;;;;4937402;29;20438;-74
2021/03/28 08:16:28;;;;;;;5.60;3.70;;;9.70;1.00;;;;;;4918433;29;20424;-74
2021/03/28 08:19:14;;;;;;;7.20;3.50;;;9.80;1.00;;;;;;4978027;28;20530;-73
2021/03/28 08:21:58;;;;;;;8.40;3.80;;;9.90;1.00;;;;;;5015712;28;20427;-74
2021/03/28 08:25:07;;;;;;;15.57;4.30;;;10.10;1.00;;;;;;5002807;28;20419;-75
2021/03/28 08:28:05;;;;;;;8.63;4.17;;;10.20;1.00;;;;;;5014448;28;20470;-77
2021/03/28 08:31:26;;;;;;;5.13;3.53;;;10.40;1.00;;;;;;5013549;28;20411;-76
2021/03/28 08:34:05;;;;;;;9.20;3.00;;;10.50;1.00;;;;;;5013994;28;20546;-76
2021/03/28 08:37:20;;;;;;;8.33;3.47;;;10.60;1.00;;;;;;4998794;28;20494;-75
2021/03/28 08:40:23;;;;;;;5.47;2.93;;;10.70;1.00;;;;;;4995476;28;20568;-73
2021/03/28 08:43:22;;;;;;;4.90;3.00;;;10.90;1.00;;;;;;5010762;28;20510;-74
2021/03/28 08:46:06;;;;;;;2.97;2.60;;;10.90;1.00;;;;;;5014173;28;20423;-74
2021/03/28 08:48:44;;;;;;;5.13;3.03;;;;;;;;;;5005048;28;20449;-73
2021/03/28 08:51:41;;;;;;;7.07;2.60;;;10.90;1.00;;;;;;4994732;28;20740;-74
2021/03/28 08:54:18;;;;;;;7.33;3.20;;;10.90;1.00;;;;;;5054346;28;20537;-74
2021/03/28 08:57:21;;;;;;;4.20;2.10;;;10.90;1.00;;;;;;5066523;28;20417;-74
2021/03/28 09:00:03;;;;;;;3.87;2.30;;;11.00;1.00;;;;;;5067846;28;20523;-74
2021/03/28 09:02:47;;;;;;;6.03;3.23;;;11.00;1.00;;;;;;5074328;28;20440;-74
2021/03/28 09:05:36;;;;;;;7.13;3.03;;;11.10;1.00;;;;;;5075397;28;20396;-73
2021/03/28 09:08:45;;;;;;;5.80;3.20;;;11.00;1.00;;;;;;5074968;28;20429;-74
2021/03/28 09:11:44;;;;;;;7.80;2.40;;;11.10;1.00;;;;;;5014609;28;20424;-73
2021/03/28 09:14:38;;;;;;;5.47;2.63;;;11.20;1.00;;;;;;5013475;28;20837;-74
2021/03/28 09:17:04;;;;;;;6.40;2.70;;;;;;;;;;5013917;28;20489;-74
2021/03/28 09:19:48;;;;;;;6.50;2.83;;;11.40;1.00;;;;;;5013452;28;20877;-74
2021/03/28 09:22:33;;;;;;;12.67;3.83;;;11.50;1.00;;;;;;5017790;28;20424;-74
2021/03/28 09:25:11;;;;;;;7.40;3.30;;;11.60;1.00;;;;;;5022206;28;20427;-77
2021/03/28 09:28:14;;;;;;;9.73;3.83;;;11.60;1.00;;;;;;5017581;28;20559;-76
2021/03/28 09:31:26;;;;;;;8.07;3.87;;;11.70;1.00;;;;;;5013739;28;20431;-76
2021/03/28 09:34:20;;;;;;;7.40;2.07;;;11.80;1.00;;;;;;5013410;28;21044;-76
2021/03/28 09:37:04;;;;;;;7.97;2.37;;;11.90;1.00;;;;;;5020122;28;20434;-76
2021/03/28 09:39:56;;;;;;;3.57;2.07;;;11.90;1.00;;;;;;5013232;28;20395;-77
2021/03/28 09:42:39;;;;;;;8.00;3.03;;;12.00;1.00;;;;;;5027280;28;20434;-73
2021/03/28 09:45:26;;;;;;;3.40;2.30;;;12.10;1.00;;;;;;5020101;28;20947;-73
2021/03/28 09:48:06;;;;;;;5.00;2.40;;;12.00;1.00;;;;;;5048022;28;20432;-73
2021/03/28 09:50:45;;;;;;;6.17;2.57;;;12.20;1.00;;;;;;5073996;28;20432;-73
2021/03/28 09:53:19;;;;;;;8.50;2.77;;;12.20;1.00;;;;;;5069195;28;20417;-74
2021/03/28 09:56:08;;;;;;;6.17;2.90;;;12.30;1.00;;;;;;5069042;28;20448;-73
2021/03/28 09:58:58;;;;;;;6.87;2.70;;;12.40;1.00;;;;;;5074494;28;20429;-73
2021/03/28 10:01:36;;;;;;;5.27;2.30;;;12.60;1.00;;;;;;5072675;28;20926;-73
2021/03/28 10:04:23;;;;;;;9.13;3.07;;;12.90;1.00;;;;;;5065000;28;20472;-73
2021/03/28 10:07:01;;;;;;;8.40;2.37;;;13.20;1.00;;;;;;5076423;28;20470;-73
2021/03/28 10:09:38;;;;;;;5.23;2.07;;;13.50;1.00;;;;;;5094240;28;20795;-73
2021/03/28 10:12:41;;;;;;;6.20;2.87;;;13.60;1.00;;;;;;5064595;28;20397;-74
2021/03/28 10:15:24;;;;;;;3.97;2.20;;;13.80;1.00;;;;;;5052309;28;20487;-74
2021/03/28 10:18:34;;;;;;;4.40;1.90;;;13.90;1.00;;;;;;5052263;28;20464;-75
2021/03/28 10:21:31;;;;;;;5.27;3.00;;;14.00;1.00;;;;;;5051595;28;20430;-73
2021/03/28 10:23:59;;;;;;;5.53;2.90;;;14.00;1.00;;;;;;5051890;28;20456;-73
2021/03/28 10:26:28;;;;;;;9.73;3.13;;;;;;;;;;5051802;28;20389;-74
2021/03/28 10:29:04;;;;;;;8.20;2.80;;;14.00;1.00;;;;;;5035206;28;20435;-73
2021/03/28 10:31:33;;;;;;;4.43;2.60;;;14.00;1.00;;;;;;5040165;28;20891;-73
2021/03/28 10:33:59;;;;;;;4.57;2.33;;;;;;;;;;5032011;28;20470;-74
2021/03/28 10:36:47;;;;;;;5.90;2.10;;;14.00;1.00;;;;;;5043154;28;20944;-73
2021/03/28 10:39:45;;;;;;;3.67;1.93;;;13.90;1.00;;;;;;5051881;28;20469;-75
2021/03/28 10:42:22;;;;;;;4.20;1.47;;;13.80;1.00;;;;;;5022734;28;20873;-75
2021/03/28 10:45:08;;;;;;;1.77;1.30;;;13.80;1.00;;;;;;5050370;28;20479;-75
2021/03/28 10:48:10;;;;;;;2.60;1.57;;;13.70;1.00;;;;;;5050517;28;20402;-76
2021/03/28 10:50:52;;;;;;;4.20;1.67;;;13.80;1.00;;;;;;5050402;28;20824;-75
2021/03/28 10:53:52;;;;;;;5.90;2.00;;;13.90;1.00;;;;;;5052521;28;20414;-75
2021/03/28 10:56:45;;;;;;;5.40;1.77;;;14.10;1.00;;;;;;5053415;28;20783;-76
2021/03/28 10:59:31;;;;;;;3.57;1.57;;;14.00;1.00;;;;;;5054241;28;20399;-77
2021/03/28 11:02:21;;;;;;;2.70;1.50;;;14.00;1.00;;;;;;5073014;28;20389;-76
2021/03/28 11:05:08;;;;;;;9.90;1.23;;;14.20;1.00;;;;;;5065296;28;20441;-77
2021/03/28 11:07:45;;;;;;;1.77;0.80;;;14.60;1.00;;;;;;5072796;28;20746;-76
2021/03/28 11:10:29;;;;;;;8.33;0.87;;;14.90;1.00;;;;;;5072827;28;20407;-76
2021/03/28 11:13:06;;;;;;;3.30;1.20;;;14.90;1.00;;;;;;5073155;28;20862;-75
2021/03/28 11:15:48;;;;;;;5.90;1.20;;;14.90;1.00;;;;;;5072744;28;20416;-75
2021/03/28 11:18:14;;;;;;;1.60;1.00;;;;;;;;;;5072849;28;20392;-75
2021/03/28 11:20:57;;;;;;;3.90;1.43;;;15.30;1.00;;;;;;5072653;28;20390;-75
2021/03/28 11:23:29;;;;;;;4.17;0.93;;;15.50;1.00;;;;;;5072459;28;20831;-75
2021/03/28 11:26:10;;;;;;;3.30;1.10;;;15.70;1.00;;;;;;5068878;28;20450;-75
2021/03/28 11:28:58;;;;;;;2.50;1.00;;;15.90;1.00;;;;;;5052621;28;20940;-76
2021/03/28 11:31:27;;;;;;;1.63;1.53;;;15.80;1.00;;;;;;4990796;28;20419;-77
2021/03/28 11:34:24;;;;;;;6.70;2.17;;;15.80;1.00;;;;;;4993663;28;20474;-76
2021/03/28 11:37:00;;;;;;;2.13;1.77;;;16.00;1.00;;;;;;4937012;29;20435;-76
2021/03/28 11:39:29;;;;;;;2.97;1.07;;;15.70;1.00;;;;;;4937123;29;20445;-76
2021/03/28 11:42:23;;;;;;;1.47;1.00;;;15.70;1.00;;;;;;4938716;29;20499;-77
2021/03/28 11:45:04;;;;;;;3.53;1.23;;;15.50;1.00;;;;;;4955844;29;20401;-76
2021/03/28 11:47:30;;;;;;;5.07;1.23;;;;;;;;;;4955940;29;20457;-76
2021/03/28 11:50:14;;;;;;;4.73;1.30;;;15.50;1.00;;;;;;4955753;29;20415;-76
2021/03/28 11:53:00;;;;;;;5.37;1.70;;;15.60;1.00;;;;;;4955998;29;20389;-76
2021/03/28 11:55:26;;;;;;;5.13;1.60;;;;;;;;;;4955816;29;20559;-76
2021/03/28 11:58:12;;;;;;;2.60;0.93;;;15.70;1.00;;;;;;4956266;29;20830;-74
2021/03/28 12:00:41;;;;;;;4.30;1.30;;;15.60;1.00;;;;;;4955736;29;20409;-75
2021/03/28 12:03:34;;;;;;;4.63;1.33;;;15.50;1.00;;;;;;4955782;29;20823;-75
2021/03/28 12:06:00;;;;;;;5.33;1.57;;;;;;;;;;4897990;29;20441;-76
2021/03/28 12:08:54;;;;;;;5.30;1.80;;;15.30;1.00;;;;;;4899457;29;20396;-75
2021/03/28 12:11:50;;;;;;;3.07;1.60;;;15.20;1.00;;;;;;4899554;29;20395;-74
2021/03/28 12:14:38;;;;;;;11.83;1.97;;;15.20;1.00;;;;;;4924957;29;20475;-77
2021/03/28 12:21:19;;;;;;;2.13;1.47;;;15.20;1.00;;;;;;4956420;29;20724;-80
2021/03/28 12:24:06;;;;;;;1.93;1.70;;;15.10;1.00;;;;;;4918047;29;20415;-76
2021/03/28 12:26:35;;;;;;;4.47;2.00;;;15.10;1.00;;;;;;4913882;29;20408;-75
2021/03/28 12:29:33;;;;;;;4.63;1.43;;;15.40;1.00;;;;;;4917177;29;20432;-75
2021/03/28 12:32:41;;;;;;;2.40;1.33;;;15.60;1.00;;;;;;4917864;29;20954;-75
2021/03/28 12:38:41;;;;;;;7.73;2.17;;;15.60;1.00;;;;;;4917043;29;20958;-76
2021/03/28 12:41:09;;;;;;;3.80;1.43;;;15.40;1.00;;;;;;4917730;29;20382;-72
2021/03/28 12:43:39;;;;;;;7.00;1.40;;;15.20;1.00;;;;;;4933702;29;20416;-73
2021/03/28 12:46:31;;;;;;;4.83;1.27;;;15.20;1.00;;;;;;4936573;29;20426;-73
2021/03/28 12:49:13;;;;;;;2.20;1.20;;;15.20;1.00;;;;;;4948940;28;20422;-72
2021/03/28 12:51:50;;;;;;;1.77;1.40;;;15.40;1.00;;;;;;4989426;28;20914;-73
2021/03/28 12:54:24;;;;;;;2.23;1.40;;;15.50;1.00;;;;;;4994374;28;20913;-73
2021/03/28 12:56:52;;;;;;;2.17;1.20;;;15.60;1.00;;;;;;5002177;28;20387;-72
2021/03/28 12:59:40;;;;;;;3.27;1.47;;;15.80;1.00;;;;;;5055720;28;20452;-72
2021/03/28 13:02:29;;;;;;;11.87;1.83;;;15.90;1.00;;;;;;5055205;28;20927;-73
2021/03/28 13:04:59;;;;;;;10.90;2.90;;;15.70;1.00;;;;;;5056309;28;20743;-73
2021/03/28 13:07:42;;;;;;;11.80;1.90;;;15.70;1.00;;;;;;5074748;28;20973;-73
2021/03/28 13:10:29;;;;;;;5.10;1.77;;;15.70;1.00;;;;;;5075706;28;20404;-75
2021/03/28 13:13:07;;;;;;;5.23;1.43;;;15.60;1.00;;;;;;5064410;28;20434;-75
2021/03/28 13:15:49;;;;;;;3.10;1.60;;;15.70;1.00;;;;;;5055551;28;20453;-73
2021/03/28 13:18:30;;;;;;;3.23;1.53;;;15.70;1.00;;;;;;5055308;28;20752;-73
2021/03/28 13:21:25;;;;;;;3.93;1.50;;;15.80;1.00;;;;;;5055476;28;20403;-76
2021/03/28 13:24:05;;;;;;;7.40;1.90;;;15.90;1.00;;;;;;5055970;28;20394;-73
2021/03/28 13:26:55;;;;;;;6.57;2.30;;;15.00;1.00;;;;;;5062300;28;20392;-73
2021/03/28 13:29:37;;;;;;;6.10;2.10;;;16.10;1.00;;;;;;5055462;28;20736;-76
2021/03/28 13:32:17;;;;;;;2.70;1.30;;;16.20;1.00;;;;;;5054233;28;20445;-76
2021/03/28 13:35:26;;;;;;;3.53;1.80;;;16.10;1.00;;;;;;5055205;28;20472;-78
2021/03/28 13:37:57;;;;;;;5.60;1.77;;;16.20;1.00;;;;;;5075117;28;20413;-74
2021/03/28 13:40:29;;;;;;;3.30;1.20;;;16.40;1.00;;;;;;5074500;28;20951;-74
2021/03/28 13:43:01;;;;;;;22.43;4.53;;;;;;;;;;5064068;28;20388;-74
2021/03/28 13:45:39;;;;;;;2.70;1.47;;;;;;;;;;5078971;28;20483;-74
2021/03/28 13:48:11;;;;;;;4.77;1.37;;;16.30;1.00;;;;;;5086107;28;20417;-74
2021/03/28 13:50:54;;;;;;;4.80;1.50;;;16.40;1.00;;;;;;5074863;28;20376;-74
2021/03/28 13:53:25;;;;;;;3.33;1.43;;;16.60;1.00;;;;;;5074825;28;20400;-74
2021/03/28 13:56:31;;;;;;;2.97;1.43;;;16.70;1.00;;;;;;5072152;28;20503;-74
2021/03/28 13:59:11;;;;;;;3.87;1.33;;;16.70;1.00;;;;;;4993515;28;20502;-76
2021/03/28 14:01:51;;;;;;;4.47;2.00;;;16.90;1.00;;;;;;4998426;28;20408;-76
2021/03/28 14:04:38;;;;;;;2.83;1.53;;;17.10;1.00;;;;;;5013070;28;20851;-76
2021/03/28 14:07:15;;;;;;;2.37;1.50;;;17.30;1.00;;;;;;5009325;28;20471;-76
2021/03/28 14:09:48;;;;;;;3.50;1.53;;;17.60;1.00;;;;;;5010452;28;20407;-76
2021/03/28 14:12:29;;;;;;;2.20;1.30;;;17.70;1.00;;;;;;5012677;28;20394;-77
2021/03/28 14:15:25;;;;;;;2.50;1.30;;;17.90;1.00;;;;;;5005506;28;20460;-74
2021/03/28 14:17:54;;;;;;;2.33;1.50;;;18.20;1.00;;;;;;4986112;28;20454;-74
2021/03/28 14:20:31;;;;;;;2.83;1.40;;;18.20;1.00;;;;;;4992890;28;20436;-74
2021/03/28 14:23:15;;;;;;;3.20;1.60;;;18.10;1.00;;;;;;4994014;28;20425;-74
2021/03/28 14:25:52;;;;;;;5.33;2.47;;;17.80;1.00;;;;;;4993963;28;20413;-74
2021/03/28 14:28:26;;;;;;;4.77;1.50;;;17.70;1.00;;;;;;5007534;28;20439;-74
2021/03/28 14:31:03;;;;;;;5.90;1.30;;;17.80;1.00;;;;;;4992244;28;20405;-74
2021/03/28 14:33:49;;;;;;;10.57;1.80;;;17.90;1.00;;;;;;4985257;28;20756;-74
2021/03/28 14:36:33;;;;;;;4.63;1.20;;;17.80;1.00;;;;;;5040468;28;20408;-74
2021/03/28 14:39:38;;;;;;;1.07;0.97;;;17.60;1.00;;;;;;5073972;28;20394;-74
2021/03/28 14:42:07;;;;;;;3.63;1.50;;;17.50;1.00;;;;;;5062864;28;20483;-73
2021/03/28 14:44:48;;;;;;;2.93;1.37;;;17.40;1.00;;;;;;5063932;28;20501;-73
2021/03/28 14:47:33;;;;;;;2.30;1.20;;;17.40;1.00;;;;;;5066651;28;20962;-73
2021/03/28 14:49:59;;;;;;;3.90;1.30;;;;;;;;;;5053681;28;20512;-74
2021/03/28 14:52:55;;;;;;;3.33;1.20;;;17.20;1.00;;;;;;5053711;28;20502;-74
2021/03/28 14:55:24;;;;;;;3.93;1.57;;;;;;;;;;5072148;28;20435;-74
2021/03/28 14:58:08;;;;;;;3.63;1.33;;;17.20;1.00;;;;;;5060967;28;20749;-74
2021/03/28 15:00:43;;;;;;;1.53;1.00;;;17.10;1.00;;;;;;5053604;28;20393;-74
2021/03/28 15:03:35;;;;;;;6.20;1.40;;;17.20;1.00;;;;;;5057475;28;20392;-74
2021/03/28 15:06:22;;;;;;;5.20;1.13;;;17.40;1.00;;;;;;5061909;28;20446;-75
2021/03/28 15:09:08;;;;;;;4.63;1.30;;;17.60;1.00;;;;;;5069004;28;20474;-74
2021/03/28 15:11:59;;;;;;;5.43;1.70;;;17.70;1.00;;;;;;5053700;28;20385;-76
2021/03/28 15:18:14;;;;;;;4.13;1.20;;;17.90;1.00;;;;;;5053435;28;20367;-78
2021/03/28 15:24:26;;;;;;;2.70;1.10;;;17.60;1.00;;;;;;5073174;28;20394;-78
2021/03/28 15:30:40;;;;;;;2.13;1.17;;;17.60;1.00;;;;;;5070084;28;20486;-77
2021/03/28 15:36:34;;;;;;;2.07;1.20;;;17.60;1.00;;;;;;5073053;28;20399;-77
2021/03/28 15:39:26;;;;;;;1.67;0.97;;;17.40;1.00;;;;;;5055723;28;20435;-79
2021/03/28 15:42:40;;;;;;;6.30;1.20;;;17.30;1.00;;;;;;5053202;28;20481;-81
2021/03/28 15:48:41;;;;;;;3.80;1.10;;;17.90;1.00;;;;;;5050962;28;20403;-81
2021/03/28 16:05:02;;;;;;;4.13;0.90;;;17.00;1.00;;;;;;5031294;28;20428;-77
2021/03/28 16:07:52;;;;;;;3.00;1.13;;;16.90;1.00;;;;;;5050966;28;20382;-77
2021/03/28 16:10:46;;;;;;;3.70;1.23;;;16.80;1.00;;;;;;5048015;28;20514;-76
2021/03/28 16:13:28;;;;;;;1.70;1.00;;;16.40;1.00;;;;;;5062779;28;20508;-78
2021/03/28 16:16:27;;;;;;;2.67;1.17;;;16.40;1.00;;;;;;5071292;28;20530;-77
2021/03/28 16:18:56;;;;;;;2.50;1.10;;;16.30;1.00;;;;;;5032138;28;20424;-78
2021/03/28 16:21:56;;;;;;;7.90;1.00;;;16.40;1.00;;;;;;5044032;28;20436;-77
2021/03/28 16:24:33;;;;;;;6.20;1.87;;;16.30;1.00;;;;;;5067797;28;20392;-76
2021/03/28 16:27:31;;;;;;;4.23;1.50;;;16.30;1.00;;;;;;5073024;28;20443;-78
2021/03/28 16:30:31;;;;;;;4.50;1.47;;;16.10;1.00;;;;;;5056928;28;20845;-77
2021/03/28 16:33:00;;;;;;;5.90;1.43;;;16.10;1.00;;;;;;5068687;28;20401;-76
2021/03/28 16:35:33;;;;;;;1.50;1.10;;;16.10;1.00;;;;;;5071587;28;20467;-77
2021/03/28 16:38:47;;;;;;;2.73;1.20;;;15.90;1.00;;;;;;5070866;28;20826;-77
2021/03/28 16:41:44;;;;;;;2.57;1.40;;;15.90;1.00;;;;;;5054020;28;20476;-78
2021/03/28 16:44:47;;;;;;;6.60;1.50;;;15.80;1.00;;;;;;5053952;28;20893;-76
2021/03/28 16:47:38;;;;;;;2.57;1.20;;;15.70;1.00;;;;;;5053952;28;20425;-75
2021/03/28 16:50:32;;;;;;;1.63;1.10;;;15.70;1.00;;;;;;5044628;28;20401;-74
2021/03/28 16:53:07;;;;;;;4.57;1.03;;;15.60;1.00;;;;;;5043744;28;20422;-72
2021/03/28 16:55:42;;;;;;;4.30;1.10;;;15.60;1.00;;;;;;5045423;28;20468;-72
2021/03/28 16:58:11;;;;;;;1.57;0.90;;;15.50;1.00;;;;;;5039660;28;20826;-72
2021/03/28 17:00:40;;;;;;;3.23;1.20;;;15.50;1.00;;;;;;5052055;28;20422;-76
2021/03/28 17:03:15;;;;;;;4.53;1.17;;;;;;;;;;5053735;28;20435;-77
2021/03/28 17:05:51;;;;;;;2.90;1.10;;;15.40;1.00;;;;;;5053549;28;20464;-76
2021/03/28 17:08:28;;;;;;;6.87;1.90;;;15.40;1.00;;;;;;5053775;28;20422;-76
2021/03/28 17:10:54;;;;;;;5.13;1.00;;;15.40;1.00;;;;;;5052424;28;20923;-76
2021/03/28 17:13:26;;;;;;;6.03;1.50;;;15.30;1.00;;;;;;5046407;28;20448;-77
2021/03/28 17:15:53;;;;;;;8.07;1.03;;;15.30;1.00;;;;;;5053858;28;20556;-72
2021/03/28 17:18:36;;;;;;;4.53;1.57;;;15.30;1.00;;;;;;5062655;28;20807;-72